createdAt,value
2018-10-17T00:00:48.948Z,23.63
2018-10-17T00:03:17.204Z,23.90
2018-10-17T00:05:45.484Z,23.50
2018-10-17T00:08:13.788Z,24.70
2018-10-17T00:10:42.031Z,23.70
2018-10-17T00:13:10.323Z,24.23
2018-10-17T00:15:38.874Z,23.73
2018-10-17T00:18:07.121Z,23.90
2018-10-17T00:20:35.501Z,24.75
2018-10-17T00:23:03.854Z,22.97
2018-10-17T00:25:32.056Z,23.40
2018-10-17T00:28:00.384Z,23.70
2018-10-17T00:30:28.653Z,24.10
2018-10-17T00:32:56.878Z,24.87
2018-10-17T00:35:25.199Z,24.90
2018-10-17T00:37:53.433Z,23.60
2018-10-17T00:40:23.822Z,23.80
2018-10-17T00:42:52.889Z,24.00
2018-10-17T00:45:21.183Z,23.60
2018-10-17T00:47:49.418Z,23.20
2018-10-17T00:50:17.704Z,24.92
2018-10-17T00:52:46.052Z,24.30
2018-10-17T00:55:14.459Z,24.75
2018-10-17T00:57:42.637Z,23.10
2018-10-17T01:00:10.896Z,24.80
2018-10-17T01:02:39.114Z,23.83
2018-10-17T01:05:07.504Z,24.65
2018-10-17T01:07:35.849Z,24.77
2018-10-17T01:10:04.382Z,23.95
2018-10-17T01:12:32.769Z,23.57
2018-10-17T01:15:01.076Z,25.17
2018-10-17T01:17:29.334Z,24.93
2018-10-17T01:19:57.589Z,25.70
2018-10-17T01:22:25.804Z,26.50
2018-10-17T01:24:54.183Z,25.75
2018-10-17T01:27:22.384Z,25.08
2018-10-17T01:29:50.605Z,26.70
2018-10-17T01:32:18.862Z,25.62
2018-10-17T01:34:47.132Z,26.42
2018-10-17T01:37:15.581Z,27.10
2018-10-17T01:39:43.775Z,26.97
2018-10-17T01:42:12.007Z,27.32
2018-10-17T01:44:40.696Z,27.35
2018-10-17T01:47:09.142Z,26.95
2018-10-17T01:49:37.388Z,27.52
2018-10-17T01:52:05.684Z,27.82
2018-10-17T01:54:33.952Z,26.87
2018-10-17T01:57:02.229Z,26.57
2018-10-17T01:59:30.464Z,26.37
2018-10-17T02:01:58.761Z,27.60
2018-10-17T02:04:26.993Z,27.00
2018-10-17T02:06:55.299Z,28.57
2018-10-17T02:09:23.608Z,27.67
2018-10-17T02:11:51.896Z,27.87
2018-10-17T02:14:20.163Z,28.25
2018-10-17T02:16:48.404Z,28.00
2018-10-17T02:19:16.625Z,27.48
2018-10-17T02:21:44.916Z,27.10
2018-10-17T02:24:13.202Z,27.37
2018-10-17T02:26:41.529Z,29.48
2018-10-17T02:29:09.852Z,28.05
2018-10-17T02:31:38.000Z,28.07
2018-10-17T02:34:06.314Z,27.80
2018-10-17T02:36:34.617Z,30.50
2018-10-17T02:39:02.857Z,30.55
2018-10-17T02:41:31.170Z,28.40
2018-10-17T02:43:59.441Z,29.07
2018-10-17T02:46:27.659Z,29.40
2018-10-17T02:48:55.878Z,28.57
2018-10-17T02:51:24.118Z,29.67
2018-10-17T02:53:52.347Z,29.45
2018-10-17T02:56:20.682Z,29.50
2018-10-17T02:58:48.957Z,29.65
2018-10-17T03:01:17.327Z,30.17
2018-10-17T03:03:45.454Z,30.02
2018-10-17T03:06:13.818Z,30.60
2018-10-17T03:08:42.046Z,30.85
2018-10-17T03:11:10.652Z,30.10
2018-10-17T03:13:38.820Z,36.70
2018-10-17T03:16:07.075Z,32.38
2018-10-17T03:18:35.328Z,32.53
2018-10-17T03:21:03.555Z,30.90
2018-10-17T03:23:31.863Z,31.60
2018-10-17T03:26:00.205Z,32.13
2018-10-17T03:28:28.491Z,33.28
2018-10-17T03:30:56.833Z,32.75
2018-10-17T03:33:25.038Z,32.58
2018-10-17T03:35:53.355Z,34.27
2018-10-17T03:38:21.589Z,35.00
2018-10-17T03:40:49.829Z,34.80
2018-10-17T03:43:18.197Z,33.92
2018-10-17T03:45:46.418Z,33.63
2018-10-17T03:48:14.695Z,34.55
2018-10-17T03:50:42.966Z,36.68
2018-10-17T03:53:11.239Z,35.65
2018-10-17T03:55:39.530Z,36.08
2018-10-17T03:58:07.741Z,35.55
2018-10-17T04:00:35.958Z,37.35
2018-10-17T04:03:04.245Z,36.25
2018-10-17T04:05:32.513Z,36.13
2018-10-17T04:08:01.351Z,36.10
2018-10-17T04:10:29.638Z,36.77
2018-10-17T04:12:57.936Z,35.70
2018-10-17T04:15:26.246Z,37.13
2018-10-17T04:17:54.521Z,35.95
2018-10-17T04:20:22.785Z,38.75
2018-10-17T04:22:57.618Z,36.95
2018-10-17T04:25:26.101Z,34.63
2018-10-17T04:27:55.239Z,37.48
2018-10-17T04:30:23.592Z,35.88
2018-10-17T04:32:51.850Z,41.00
2018-10-17T04:35:20.230Z,36.85
2018-10-17T04:37:48.373Z,36.15
2018-10-17T04:40:16.631Z,36.13
2018-10-17T04:42:44.901Z,37.40
2018-10-17T04:45:13.181Z,37.58
2018-10-17T04:47:41.495Z,35.60
2018-10-17T04:50:10.957Z,36.73
2018-10-17T04:52:39.779Z,35.78
2018-10-17T04:55:08.994Z,36.77
2018-10-17T04:57:37.258Z,36.73
2018-10-17T05:00:07.663Z,38.23
2018-10-17T05:02:35.958Z,35.78
2018-10-17T05:05:04.278Z,37.48
2018-10-17T05:07:32.497Z,35.43
2018-10-17T05:10:00.725Z,37.20
2018-10-17T05:12:28.998Z,34.70
2018-10-17T05:14:57.273Z,33.98
2018-10-17T05:17:25.710Z,35.48
2018-10-17T05:19:53.973Z,35.23
2018-10-17T05:22:22.293Z,36.75
2018-10-17T05:24:50.523Z,36.40
2018-10-17T05:27:18.850Z,35.43
2018-10-17T05:29:47.255Z,36.65
2018-10-17T05:32:15.457Z,35.45
2018-10-17T05:34:43.703Z,36.68
2018-10-17T05:37:12.120Z,35.45
2018-10-17T05:39:40.272Z,36.70
2018-10-17T05:42:08.579Z,36.42
2018-10-17T05:44:36.911Z,35.55
2018-10-17T05:47:05.381Z,37.70
2018-10-17T05:49:33.697Z,37.33
2018-10-17T05:52:01.962Z,37.38
2018-10-17T05:54:30.207Z,36.00
2018-10-17T05:56:58.430Z,35.05
2018-10-17T05:59:26.825Z,36.40
2018-10-17T06:01:55.446Z,36.33
2018-10-17T06:04:23.709Z,35.65
2018-10-17T06:06:52.014Z,34.70
2018-10-17T06:09:20.341Z,36.00
2018-10-17T06:11:48.582Z,34.38
2018-10-17T06:14:17.524Z,35.95
2018-10-17T06:16:46.560Z,34.60
2018-10-17T06:19:15.023Z,35.33
2018-10-17T06:21:43.264Z,35.35
2018-10-17T06:24:11.572Z,37.70
2018-10-17T06:26:39.789Z,36.45
2018-10-17T06:29:08.108Z,36.80
2018-10-17T06:31:36.462Z,35.98
2018-10-17T06:34:04.877Z,34.10
2018-10-17T06:36:33.029Z,37.20
2018-10-17T06:39:01.325Z,32.05
2018-10-17T06:41:29.647Z,33.00
2018-10-17T06:43:57.955Z,35.33
2018-10-17T06:46:26.259Z,32.90
2018-10-17T06:48:54.565Z,32.15
2018-10-17T06:51:22.858Z,30.80
2018-10-17T06:53:51.268Z,34.50
2018-10-17T06:56:19.486Z,32.20
2018-10-17T06:58:47.928Z,30.45
2018-10-17T07:01:16.299Z,31.70
2018-10-17T07:03:44.503Z,32.60
2018-10-17T07:06:12.896Z,31.90
2018-10-17T07:08:41.149Z,30.23
2018-10-17T07:11:09.493Z,31.70
2018-10-17T07:13:37.738Z,32.35
2018-10-17T07:16:06.015Z,33.10
2018-10-17T07:18:34.289Z,31.75
2018-10-17T07:21:02.520Z,30.05
2018-10-17T07:23:30.781Z,30.97
2018-10-17T07:25:59.077Z,30.50
2018-10-17T07:28:27.391Z,28.55
2018-10-17T07:30:55.692Z,27.73
2018-10-17T07:33:23.934Z,29.48
2018-10-17T07:35:52.358Z,27.93
2018-10-17T07:38:20.729Z,25.85
2018-10-17T07:40:49.074Z,24.57
2018-10-17T07:43:17.294Z,25.80
2018-10-17T07:45:45.702Z,26.10
2018-10-17T07:48:13.955Z,23.67
2018-10-17T07:50:42.118Z,26.03
2018-10-17T07:53:10.486Z,23.67
2018-10-17T07:55:38.646Z,23.60
2018-10-17T07:58:07.007Z,24.20
2018-10-17T08:00:35.300Z,24.60
2018-10-17T08:03:03.781Z,23.57
2018-10-17T08:05:32.122Z,22.77
2018-10-17T08:08:00.487Z,21.90
2018-10-17T08:10:28.843Z,20.63
2018-10-17T08:12:57.069Z,21.30
2018-10-17T08:15:25.372Z,18.77
2018-10-17T08:17:53.590Z,19.00
2018-10-17T08:20:21.895Z,18.57
2018-10-17T08:22:50.206Z,16.50
2018-10-17T08:25:18.493Z,16.40
2018-10-17T08:27:46.757Z,15.60
2018-10-17T08:30:15.103Z,14.37
2018-10-17T08:32:43.305Z,14.50
2018-10-17T08:35:11.592Z,13.50
2018-10-17T08:37:40.230Z,12.40
2018-10-17T08:40:08.337Z,13.20
2018-10-17T08:42:36.617Z,10.57
2018-10-17T08:45:05.390Z,10.07
2018-10-17T08:47:33.614Z,9.97
2018-10-17T08:50:01.923Z,8.60
2018-10-17T08:52:30.174Z,7.40
2018-10-17T08:54:58.442Z,8.00
2018-10-17T08:57:26.686Z,8.70
2018-10-17T08:59:54.886Z,8.03
2018-10-17T09:02:23.114Z,7.70
2018-10-17T09:04:51.402Z,8.70
2018-10-17T09:07:19.640Z,8.97
2018-10-17T09:09:47.962Z,9.87
2018-10-17T09:12:16.419Z,9.23
2018-10-17T09:14:44.618Z,9.10
2018-10-17T09:17:12.973Z,8.37
2018-10-17T09:19:41.450Z,9.70
2018-10-17T09:22:09.833Z,9.70
2018-10-17T09:24:37.707Z,8.53
2018-10-17T09:27:05.945Z,8.90
2018-10-17T09:29:34.670Z,8.97
2018-10-17T09:32:03.048Z,6.77
2018-10-17T09:34:31.293Z,7.00
2018-10-17T09:36:59.566Z,4.73
2018-10-17T09:39:27.797Z,4.93
2018-10-17T09:41:56.093Z,4.60
2018-10-17T09:44:24.343Z,5.87
2018-10-17T09:46:52.777Z,5.30
2018-10-17T09:49:21.084Z,5.30
2018-10-17T09:51:49.434Z,6.00
2018-10-17T09:54:17.860Z,6.73
2018-10-17T09:56:45.874Z,7.17
2018-10-17T09:59:14.158Z,8.00
2018-10-17T10:01:50.704Z,7.50
2018-10-17T10:04:19.416Z,7.60
2018-10-17T10:06:48.242Z,7.37
2018-10-17T10:09:16.599Z,7.20
2018-10-17T10:11:44.844Z,7.40
2018-10-17T10:14:13.077Z,7.27
2018-10-17T10:16:41.319Z,6.70
2018-10-17T10:19:09.958Z,6.07
2018-10-17T10:21:38.465Z,5.93
2018-10-17T10:24:08.689Z,4.53
2018-10-17T10:26:37.826Z,4.10
2018-10-17T10:29:06.529Z,4.70
2018-10-17T10:31:34.843Z,5.47
2018-10-17T10:34:03.227Z,5.00
2018-10-17T10:36:31.420Z,5.00
2018-10-17T10:38:59.751Z,6.00
2018-10-17T10:41:28.101Z,5.60
2018-10-17T10:43:56.670Z,4.90
2018-10-17T10:46:24.905Z,5.70
2018-10-17T10:48:53.231Z,6.20
2018-10-17T10:51:21.525Z,6.73
2018-10-17T10:53:49.744Z,7.03
2018-10-17T10:56:18.147Z,6.77
2018-10-17T10:58:46.384Z,6.63
2018-10-17T11:01:14.522Z,6.27
2018-10-17T11:03:42.779Z,6.73
2018-10-17T11:06:10.983Z,6.43
2018-10-17T11:08:39.242Z,6.57
2018-10-17T11:11:07.516Z,7.50
2018-10-17T11:13:35.730Z,7.10
2018-10-17T11:16:04.107Z,7.17
2018-10-17T11:18:32.416Z,6.83
2018-10-17T11:21:00.819Z,6.90
2018-10-17T11:23:29.066Z,6.93
2018-10-17T11:25:57.776Z,7.00
2018-10-17T11:28:26.025Z,6.40
2018-10-17T11:31:01.045Z,6.37
2018-10-17T11:33:29.325Z,6.17
2018-10-17T11:35:57.590Z,8.10
2018-10-17T11:38:25.837Z,6.80
2018-10-17T11:40:54.115Z,7.40
2018-10-17T11:43:23.175Z,7.93
2018-10-17T11:45:51.379Z,7.53
2018-10-17T11:48:19.606Z,7.73
2018-10-17T11:50:47.922Z,7.20
2018-10-17T11:53:16.302Z,6.40
2018-10-17T11:55:44.465Z,6.33
2018-10-17T11:58:12.791Z,6.50
2018-10-17T12:00:41.048Z,7.10
2018-10-17T12:03:09.395Z,6.10
2018-10-17T12:05:37.848Z,6.23
2018-10-17T12:08:06.035Z,6.40
2018-10-17T12:10:34.265Z,7.10
2018-10-17T12:13:02.846Z,7.17
2018-10-17T12:15:31.345Z,7.33
2018-10-17T12:17:59.736Z,7.20
2018-10-17T12:20:27.946Z,7.70
2018-10-17T12:22:56.150Z,7.77
2018-10-17T12:25:24.397Z,6.70
2018-10-17T12:27:52.789Z,7.47
2018-10-17T12:30:21.017Z,7.00
2018-10-17T12:32:49.326Z,7.30
2018-10-17T12:35:17.837Z,7.10
2018-10-17T12:37:46.011Z,6.53
2018-10-17T12:40:14.354Z,7.37
2018-10-17T12:42:42.602Z,7.37
2018-10-17T12:45:10.996Z,7.70
2018-10-17T12:47:39.287Z,6.97
2018-10-17T12:50:08.648Z,7.47
2018-10-17T12:52:37.060Z,6.57
2018-10-17T12:55:06.080Z,6.47
2018-10-17T12:57:34.349Z,6.00
2018-10-17T13:00:02.685Z,5.90
2018-10-17T13:02:30.850Z,5.53
2018-10-17T13:04:59.154Z,6.20
2018-10-17T13:07:27.530Z,5.60
2018-10-17T13:09:55.810Z,6.67
2018-10-17T13:12:24.205Z,5.53
2018-10-17T13:14:52.606Z,5.67
2018-10-17T13:17:20.809Z,6.27
2018-10-17T13:19:49.122Z,5.80
2018-10-17T13:22:17.391Z,6.10
2018-10-17T13:24:45.741Z,5.97
2018-10-17T13:27:13.958Z,5.60
2018-10-17T13:29:42.213Z,5.43
2018-10-17T13:32:10.572Z,5.70
2018-10-17T13:34:38.827Z,5.63
2018-10-17T13:37:07.625Z,5.47
2018-10-17T13:39:35.906Z,5.67
2018-10-17T13:42:04.296Z,5.17
2018-10-17T13:44:32.603Z,5.00
2018-10-17T13:47:01.130Z,4.70
2018-10-17T13:49:29.391Z,4.13
2018-10-17T13:51:57.648Z,4.40
2018-10-17T13:54:25.944Z,4.30
2018-10-17T13:56:54.196Z,5.07
2018-10-17T13:59:22.630Z,4.80
2018-10-17T14:01:50.983Z,4.50
2018-10-17T14:04:19.418Z,4.47
2018-10-17T14:06:47.705Z,4.53
2018-10-17T14:09:16.068Z,4.97
2018-10-17T14:11:44.407Z,4.90
2018-10-17T14:14:12.570Z,4.60
2018-10-17T14:16:40.853Z,5.17
2018-10-17T14:19:09.096Z,4.60
2018-10-17T14:21:37.509Z,5.13
2018-10-17T14:24:05.792Z,5.10
2018-10-17T14:26:34.057Z,4.93
2018-10-17T14:29:02.347Z,5.00
2018-10-17T14:31:30.807Z,5.00
2018-10-17T14:33:59.269Z,4.70
2018-10-17T14:36:27.724Z,4.87
2018-10-17T14:38:56.715Z,4.70
2018-10-17T14:41:25.038Z,5.27
2018-10-17T14:43:53.497Z,5.07
2018-10-17T14:46:22.313Z,5.47
2018-10-17T14:48:50.934Z,4.53
2018-10-17T14:51:19.417Z,5.70
2018-10-17T14:53:47.739Z,5.60
2018-10-17T14:56:16.086Z,5.80
2018-10-17T14:58:44.411Z,5.17
2018-10-17T15:01:17.214Z,5.60
2018-10-17T15:03:45.510Z,5.00
2018-10-17T15:06:13.850Z,5.17
2018-10-17T15:08:42.163Z,5.13
2018-10-17T15:11:10.671Z,4.80
2018-10-17T15:13:38.805Z,3.73
2018-10-17T15:16:07.189Z,4.33
2018-10-17T15:18:35.637Z,5.37
2018-10-17T15:21:04.047Z,5.50
2018-10-17T15:23:32.373Z,6.40
2018-10-17T15:26:00.717Z,5.30
2018-10-17T15:28:29.054Z,5.80
2018-10-17T15:30:57.300Z,5.10
2018-10-17T15:33:25.544Z,7.00
2018-10-17T15:35:53.876Z,5.50
2018-10-17T15:38:22.265Z,6.17
2018-10-17T15:40:50.539Z,6.30
2018-10-17T15:43:18.873Z,5.97
2018-10-17T15:45:47.167Z,5.60
2018-10-17T15:48:15.471Z,5.20
2018-10-17T15:50:43.656Z,5.50
2018-10-17T15:53:12.025Z,6.07
2018-10-17T15:55:40.195Z,5.13
2018-10-17T15:58:08.689Z,4.60
2018-10-17T16:00:37.013Z,4.83
2018-10-17T16:03:05.474Z,5.67
2018-10-17T16:05:33.834Z,4.70
2018-10-17T16:08:02.210Z,5.27
2018-10-17T16:10:30.450Z,4.90
2018-10-17T16:12:58.777Z,4.80
2018-10-17T16:15:27.027Z,5.47
2018-10-17T16:17:55.499Z,5.37
2018-10-17T16:20:23.796Z,5.00
2018-10-17T16:22:52.167Z,4.57
2018-10-17T16:25:20.442Z,5.00
2018-10-17T16:27:48.683Z,5.07
2018-10-17T16:30:17.077Z,4.97
2018-10-17T16:32:45.336Z,4.70
2018-10-17T16:35:13.639Z,5.53
2018-10-17T16:37:41.925Z,6.17
2018-10-17T16:40:10.450Z,5.80
2018-10-17T16:42:38.764Z,5.37
2018-10-17T16:45:08.189Z,5.43
2018-10-17T16:47:36.632Z,6.23
2018-10-17T16:50:04.931Z,6.87
2018-10-17T16:52:33.192Z,7.27
2018-10-17T16:55:01.546Z,6.80
2018-10-17T16:57:29.751Z,7.00
2018-10-17T16:59:58.140Z,7.30
2018-10-17T17:02:26.393Z,7.10
2018-10-17T17:04:54.757Z,7.60
2018-10-17T17:07:23.110Z,8.00
2018-10-17T17:09:51.353Z,7.67
2018-10-17T17:12:19.793Z,7.43
2018-10-17T17:14:47.832Z,7.90
2018-10-17T17:17:15.850Z,7.47
2018-10-17T17:19:43.893Z,7.90
2018-10-17T17:22:12.164Z,7.33
2018-10-17T17:24:40.526Z,8.10
2018-10-17T17:27:08.979Z,8.07
2018-10-17T17:29:37.463Z,8.23
2018-10-17T17:32:06.128Z,7.20
2018-10-17T17:34:34.434Z,8.77
2018-10-17T17:37:02.772Z,7.27
2018-10-17T17:39:31.273Z,8.23
2018-10-17T17:41:59.627Z,8.43
2018-10-17T17:44:28.297Z,8.10
2018-10-17T17:46:56.631Z,9.20
2018-10-17T17:49:24.921Z,8.13
2018-10-17T17:51:53.226Z,9.27
2018-10-17T17:54:21.499Z,9.35
2018-10-17T17:56:49.849Z,8.53
2018-10-17T17:59:18.135Z,9.93
2018-10-17T18:01:46.445Z,9.23
2018-10-17T18:04:14.709Z,9.65
2018-10-17T18:06:43.250Z,9.20
2018-10-17T18:09:12.663Z,9.80
2018-10-17T18:11:41.029Z,10.00
2018-10-17T18:14:09.324Z,11.05
2018-10-17T18:16:37.550Z,9.85
2018-10-17T18:19:05.878Z,10.15
2018-10-17T18:21:34.321Z,10.03
2018-10-17T18:24:02.682Z,9.93
2018-10-17T18:26:30.979Z,9.18
2018-10-17T18:28:59.323Z,11.53
2018-10-17T18:31:28.132Z,11.08
2018-10-17T18:33:56.494Z,11.43
2018-10-17T18:36:24.802Z,10.30
2018-10-17T18:38:53.333Z,11.30
2018-10-17T18:41:21.578Z,11.25
2018-10-17T18:43:52.750Z,11.00
2018-10-17T18:46:21.031Z,12.58
2018-10-17T18:48:49.277Z,12.05
2018-10-17T18:51:17.560Z,12.47
2018-10-17T18:53:45.894Z,12.80
2018-10-17T18:56:14.287Z,13.68
2018-10-17T18:58:42.479Z,11.55
2018-10-17T19:01:10.807Z,12.68
2018-10-17T19:03:39.046Z,12.70
2018-10-17T19:06:07.409Z,10.93
2018-10-17T19:08:35.750Z,11.20
2018-10-17T19:11:04.192Z,11.60
2018-10-17T19:16:07.417Z,12.10
2018-10-17T19:18:35.687Z,12.53
2018-10-17T19:21:04.033Z,11.78
2018-10-17T19:23:32.361Z,11.63
2018-10-17T19:26:00.721Z,12.68
2018-10-17T19:28:29.098Z,11.83
2018-10-17T19:30:57.369Z,12.70
2018-10-17T19:33:25.603Z,12.20
2018-10-17T19:35:54.043Z,12.40
2018-10-17T19:38:22.319Z,12.47
2018-10-17T19:40:50.611Z,13.08
2018-10-17T19:43:18.984Z,12.03
2018-10-17T19:45:47.214Z,12.78
2018-10-17T19:48:15.478Z,12.80
2018-10-17T19:50:43.885Z,13.18
2018-10-17T19:53:12.177Z,13.68
2018-10-17T19:55:40.492Z,13.43
2018-10-17T19:58:08.893Z,13.55
2018-10-17T20:00:37.197Z,12.82
2018-10-17T20:03:06.085Z,12.68
2018-10-17T20:05:34.309Z,12.55
2018-10-17T20:08:02.653Z,12.13
2018-10-17T20:10:30.924Z,12.05
2018-10-17T20:12:59.242Z,11.65
2018-10-17T20:15:27.565Z,12.28
2018-10-17T20:17:55.831Z,12.07
2018-10-17T20:20:24.139Z,11.60
2018-10-17T20:22:52.361Z,12.15
2018-10-17T20:25:20.618Z,13.32
2018-10-17T20:27:48.846Z,12.43
2018-10-17T20:30:17.138Z,12.18
2018-10-17T20:32:45.421Z,12.93
2018-10-17T20:35:14.167Z,11.53
2018-10-17T20:37:42.522Z,13.32
2018-10-17T20:40:10.912Z,12.45
2018-10-17T20:42:39.173Z,12.03
2018-10-17T20:45:07.702Z,13.45
2018-10-17T20:47:35.997Z,12.60
2018-10-17T20:50:04.735Z,12.90
2018-10-17T20:52:33.104Z,12.85
2018-10-17T20:55:01.386Z,13.95
2018-10-17T20:57:29.684Z,12.35
2018-10-17T20:59:57.933Z,12.78
2018-10-17T21:02:26.280Z,13.48
2018-10-17T21:04:54.574Z,14.35
2018-10-17T21:07:22.866Z,13.22
2018-10-17T21:09:51.203Z,13.50
2018-10-17T21:12:19.481Z,12.82
2018-10-17T21:14:47.856Z,13.30
2018-10-17T21:17:17.295Z,11.70
2018-10-17T21:19:45.597Z,13.38
2018-10-17T21:22:13.893Z,12.28
2018-10-17T21:24:42.153Z,12.68
2018-10-17T21:27:10.414Z,12.45
2018-10-17T21:29:38.649Z,12.47
2018-10-17T21:32:07.067Z,11.83
2018-10-17T21:34:35.305Z,12.70
2018-10-17T21:37:03.700Z,13.50
2018-10-17T21:39:32.207Z,13.30
2018-10-17T21:42:00.417Z,14.03
2018-10-17T21:44:28.688Z,12.18
2018-10-17T21:46:56.963Z,11.80
2018-10-17T21:49:25.170Z,12.58
2018-10-17T21:51:53.437Z,12.80
2018-10-17T21:54:21.713Z,12.80
2018-10-17T21:56:50.082Z,12.33
2018-10-17T21:59:18.369Z,12.88
2018-10-17T22:01:46.927Z,12.85
2018-10-17T22:04:15.178Z,12.40
2018-10-17T22:06:43.454Z,12.28
2018-10-17T22:09:12.002Z,12.28
2018-10-17T22:11:40.235Z,13.50
2018-10-17T22:14:08.536Z,12.00
2018-10-17T22:16:42.175Z,11.68
2018-10-17T22:19:10.557Z,11.35
2018-10-17T22:21:38.778Z,11.25
2018-10-17T22:24:07.162Z,11.65
2018-10-17T22:26:35.397Z,13.65
2018-10-17T22:29:03.745Z,12.88
2018-10-17T22:31:32.047Z,12.23
2018-10-17T22:34:00.378Z,11.65
2018-10-17T22:36:28.657Z,12.13
2018-10-17T22:38:56.977Z,12.55
2018-10-17T22:41:25.291Z,12.05
2018-10-17T22:43:53.579Z,11.97
2018-10-17T22:46:21.858Z,11.85
2018-10-17T22:48:50.097Z,12.93
2018-10-17T22:51:18.347Z,12.03
2018-10-17T22:53:46.565Z,12.15
2018-10-17T22:56:14.890Z,12.58
2018-10-17T22:58:43.089Z,12.45
2018-10-17T23:01:11.341Z,12.47
2018-10-17T23:03:39.597Z,12.05
2018-10-17T23:06:07.817Z,12.37
2018-10-17T23:08:36.076Z,11.60
2018-10-17T23:11:04.898Z,12.05
2018-10-17T23:13:33.194Z,13.53
2018-10-17T23:16:01.440Z,12.13
2018-10-17T23:18:29.692Z,11.48
2018-10-17T23:20:57.971Z,11.53
2018-10-17T23:23:26.213Z,11.48
2018-10-17T23:25:54.465Z,11.68
2018-10-17T23:28:22.830Z,11.60
2018-10-17T23:30:51.107Z,12.10
2018-10-17T23:33:19.457Z,11.68
2018-10-17T23:35:47.745Z,12.50
2018-10-17T23:38:16.176Z,11.50
2018-10-17T23:40:44.289Z,12.23
2018-10-17T23:43:12.559Z,11.88
2018-10-17T23:45:40.789Z,11.50
2018-10-17T23:48:09.728Z,11.95
2018-10-17T23:50:38.403Z,12.98
2018-10-17T23:53:07.665Z,13.68
2018-10-17T23:55:35.992Z,13.70
2018-10-17T23:58:04.544Z,13.48
